臺北終端管制區 - 桃園掃描雷達席

METAR RCTP 161900Z 06012KT 9999 FEW006 BKN010 BKN030 18/17 Q1012 NOSIG RMK A2991(I)=

站台狀態:Online
最後更新:2022-05-17 03:00:01